createdAt,value
2019-03-29T00:01:11.405Z,31.48
2019-03-29T00:03:43.776Z,27.20
2019-03-29T00:06:21.461Z,25.80
2019-03-29T00:09:02.459Z,28.40
2019-03-29T00:11:43.459Z,29.05
2019-03-29T00:14:23.494Z,26.90
2019-03-29T00:19:40.477Z,25.52
2019-03-29T00:22:18.920Z,28.60
2019-03-29T00:24:57.479Z,26.67
2019-03-29T00:27:38.479Z,27.73
2019-03-29T00:30:16.924Z,29.75
2019-03-29T00:32:55.950Z,27.45
2019-03-29T00:35:37.478Z,26.80
2019-03-29T00:38:16.478Z,29.02
2019-03-29T00:40:57.477Z,29.23
2019-03-29T00:43:36.477Z,28.30
2019-03-29T00:46:17.951Z,31.17
2019-03-29T00:48:59.481Z,28.67
2019-03-29T00:51:37.337Z,30.60
2019-03-29T00:54:15.506Z,31.93
2019-03-29T00:56:53.489Z,31.40
2019-03-29T00:59:32.493Z,32.87
2019-03-29T01:04:47.500Z,38.55
2019-03-29T01:07:25.510Z,71.25
2019-03-29T01:10:03.994Z,88.83
2019-03-29T01:12:41.520Z,104.47
2019-03-29T01:15:22.531Z,110.68
2019-03-29T01:18:07.004Z,105.90
2019-03-29T01:20:48.089Z,92.25
2019-03-29T01:23:26.544Z,88.10
2019-03-29T01:26:04.542Z,79.22
2019-03-29T01:28:42.542Z,78.67
2019-03-29T01:31:20.541Z,75.70
2019-03-29T01:33:58.550Z,72.07
2019-03-29T01:36:39.564Z,68.47
2019-03-29T01:39:18.562Z,65.10
2019-03-29T01:41:55.900Z,65.67
2019-03-29T01:44:34.006Z,62.55
2019-03-29T01:47:15.563Z,59.97
2019-03-29T01:49:54.563Z,59.03
2019-03-29T01:52:33.036Z,56.90
2019-03-29T01:55:17.562Z,54.35
2019-03-29T01:57:53.550Z,54.08
2019-03-29T02:00:37.562Z,57.13
2019-03-29T02:03:15.572Z,52.50
2019-03-29T02:08:36.244Z,53.00
2019-03-29T02:11:14.225Z,54.27
2019-03-29T02:13:52.171Z,52.30
2019-03-29T02:16:29.918Z,50.15
2019-03-29T02:19:08.028Z,53.48
2019-03-29T02:24:19.839Z,49.88
2019-03-29T02:26:58.604Z,51.60
2019-03-29T02:29:37.204Z,51.17
2019-03-29T02:32:15.080Z,52.88
2019-03-29T02:34:56.605Z,48.23
2019-03-29T02:37:37.615Z,50.52
2019-03-29T02:40:15.950Z,49.13
2019-03-29T02:42:54.615Z,48.90
2019-03-29T02:45:35.624Z,46.00
2019-03-29T02:48:16.829Z,50.90
2019-03-29T02:50:56.068Z,47.78
2019-03-29T02:53:31.396Z,45.50
2019-03-29T02:56:08.632Z,47.83
2019-03-29T02:58:47.099Z,47.60
2019-03-29T03:01:26.626Z,46.68
2019-03-29T03:06:44.623Z,46.48
2019-03-29T03:09:24.624Z,46.75
2019-03-29T03:11:59.883Z,45.80
2019-03-29T03:14:36.624Z,44.08
2019-03-29T03:17:13.623Z,47.67
2019-03-29T03:22:28.636Z,48.50
2019-03-29T03:25:07.706Z,51.00
2019-03-29T03:27:48.638Z,51.10
2019-03-29T03:30:23.462Z,47.88
2019-03-29T03:33:01.848Z,48.23
2019-03-29T03:35:40.075Z,47.73
2019-03-29T03:38:18.632Z,48.70
2019-03-29T03:40:57.113Z,49.35
2019-03-29T03:43:38.633Z,46.60
2019-03-29T03:46:17.642Z,47.67
2019-03-29T03:48:57.980Z,47.98
2019-03-29T03:51:39.641Z,47.85
2019-03-29T03:54:15.627Z,48.17
2019-03-29T03:56:49.130Z,51.35
2019-03-29T03:59:25.641Z,55.10
2019-03-29T04:02:02.164Z,52.38
2019-03-29T04:04:38.195Z,50.67
2019-03-29T04:07:14.665Z,50.85
2019-03-29T04:09:50.829Z,50.98
2019-03-29T04:12:30.671Z,50.77
2019-03-29T04:15:08.907Z,48.68
2019-03-29T04:17:45.674Z,48.13
2019-03-29T04:20:26.147Z,51.37
2019-03-29T04:23:07.668Z,53.80
2019-03-29T04:25:47.669Z,55.00
2019-03-29T04:28:28.144Z,51.98
2019-03-29T04:31:07.669Z,50.38
2019-03-29T04:33:45.670Z,54.63
2019-03-29T04:36:22.563Z,53.93
2019-03-29T04:38:58.668Z,51.08
2019-03-29T04:41:39.670Z,52.27
2019-03-29T04:44:15.669Z,49.30
2019-03-29T04:46:57.140Z,51.33
2019-03-29T04:49:38.113Z,50.15
2019-03-29T04:52:19.677Z,52.53
2019-03-29T04:55:01.678Z,49.63
2019-03-29T04:57:41.136Z,50.50
2019-03-29T05:00:21.677Z,48.65
2019-03-29T05:02:57.558Z,49.27
2019-03-29T05:05:34.676Z,49.75
2019-03-29T05:08:12.691Z,49.10
2019-03-29T05:10:50.686Z,46.70
2019-03-29T05:13:28.688Z,47.20
2019-03-29T05:16:07.690Z,45.90
2019-03-29T05:18:48.697Z,45.55
2019-03-29T05:21:21.125Z,45.40
2019-03-29T05:23:59.137Z,47.05
2019-03-29T05:26:37.694Z,46.55
2019-03-29T05:29:19.134Z,44.98
2019-03-29T05:31:53.784Z,46.45
2019-03-29T05:34:29.505Z,49.55
2019-03-29T05:37:08.724Z,48.10
2019-03-29T05:39:47.736Z,49.58
2019-03-29T05:42:22.743Z,47.55
2019-03-29T05:45:00.338Z,48.58
2019-03-29T05:47:38.755Z,47.48
2019-03-29T05:50:16.755Z,47.98
2019-03-29T05:52:54.202Z,45.90
2019-03-29T05:55:33.269Z,45.50
2019-03-29T05:58:10.763Z,46.58
2019-03-29T06:03:23.454Z,46.88
2019-03-29T06:05:58.772Z,46.97
2019-03-29T06:08:38.774Z,46.42
2019-03-29T06:11:19.002Z,49.10
2019-03-29T06:13:57.773Z,48.52
2019-03-29T06:16:39.498Z,52.00
2019-03-29T06:19:16.781Z,47.62
2019-03-29T06:24:40.783Z,46.95
2019-03-29T06:27:21.784Z,48.38
2019-03-29T06:30:03.055Z,46.60
2019-03-29T06:32:41.261Z,50.80
2019-03-29T06:35:13.017Z,46.18
2019-03-29T06:37:51.818Z,45.43
2019-03-29T06:40:29.821Z,48.30
2019-03-29T06:43:09.830Z,48.13
2019-03-29T06:45:49.834Z,46.58
2019-03-29T06:48:31.830Z,46.70
2019-03-29T06:51:11.846Z,46.85
2019-03-29T06:53:52.910Z,46.00
2019-03-29T06:56:30.851Z,47.38
2019-03-29T06:59:12.868Z,51.33
2019-03-29T07:01:50.850Z,49.00
2019-03-29T07:04:29.290Z,48.55
2019-03-29T07:07:07.850Z,50.60
2019-03-29T07:09:45.297Z,46.02
2019-03-29T07:12:23.866Z,48.68
2019-03-29T07:14:59.153Z,46.70
2019-03-29T07:17:35.980Z,49.70
2019-03-29T07:20:17.870Z,45.40
2019-03-29T07:22:56.342Z,46.48
2019-03-29T07:25:32.604Z,47.23
2019-03-29T07:28:02.620Z,46.83
2019-03-29T07:30:40.903Z,48.40
2019-03-29T07:33:19.899Z,46.13
2019-03-29T07:35:58.901Z,46.92
2019-03-29T07:38:36.379Z,47.67
2019-03-29T07:41:30.393Z,46.58
2019-03-29T07:43:55.357Z,47.10
2019-03-29T07:46:30.286Z,49.77
2019-03-29T07:49:02.661Z,48.80
2019-03-29T07:51:40.919Z,48.17
2019-03-29T07:54:13.657Z,46.53
2019-03-29T07:56:51.930Z,46.63
2019-03-29T07:59:27.916Z,45.15
2019-03-29T08:02:04.384Z,42.80
2019-03-29T08:04:46.542Z,43.75
2019-03-29T08:07:27.571Z,42.98
2019-03-29T08:10:06.975Z,41.53
2019-03-29T08:12:45.969Z,44.85
2019-03-29T08:15:23.979Z,40.65
2019-03-29T08:18:05.415Z,40.40
2019-03-29T08:20:44.539Z,38.38
2019-03-29T08:23:22.141Z,38.40
2019-03-29T08:25:59.980Z,35.90
2019-03-29T08:28:38.249Z,38.00
2019-03-29T08:31:15.978Z,36.70
2019-03-29T08:33:51.695Z,34.18
2019-03-29T08:36:30.123Z,32.53
2019-03-29T08:39:10.265Z,31.42
2019-03-29T08:41:59.481Z,32.00
2019-03-29T08:44:25.964Z,32.80
2019-03-29T08:46:59.464Z,33.23
2019-03-29T08:49:37.466Z,32.23
2019-03-29T08:52:12.511Z,33.50
2019-03-29T08:54:44.771Z,30.77
2019-03-29T08:57:23.031Z,29.92
2019-03-29T09:00:04.467Z,31.33
2019-03-29T09:02:43.029Z,31.60
2019-03-29T09:05:20.475Z,31.82
2019-03-29T09:08:02.039Z,27.37
2019-03-29T09:10:41.042Z,28.20
2019-03-29T09:13:22.040Z,25.05
2019-03-29T09:16:02.049Z,24.47
2019-03-29T09:18:44.049Z,25.05
2019-03-29T09:21:22.060Z,20.62
2019-03-29T09:24:00.061Z,20.12
2019-03-29T09:26:37.308Z,21.37
2019-03-29T09:29:16.073Z,20.82
2019-03-29T09:31:57.070Z,19.48
2019-03-29T09:34:36.077Z,17.35
2019-03-29T09:37:13.008Z,17.00
2019-03-29T09:39:52.081Z,17.02
2019-03-29T09:42:30.335Z,15.55
2019-03-29T09:45:11.528Z,17.80
2019-03-29T09:47:55.868Z,18.20
2019-03-29T09:50:36.080Z,15.93
2019-03-29T09:53:10.761Z,17.40
2019-03-29T09:55:48.090Z,17.32
2019-03-29T09:58:26.570Z,18.95
2019-03-29T10:01:02.009Z,19.52
2019-03-29T10:03:38.371Z,17.48
2019-03-29T10:06:09.629Z,17.32
2019-03-29T10:08:41.887Z,17.00
2019-03-29T10:11:18.048Z,17.02
2019-03-29T10:13:51.037Z,16.52
2019-03-29T10:16:26.125Z,16.77
2019-03-29T10:19:04.585Z,14.98
2019-03-29T10:21:45.134Z,16.40
2019-03-29T10:24:26.139Z,15.88
2019-03-29T10:27:01.873Z,13.93
2019-03-29T10:29:40.153Z,17.20
2019-03-29T10:32:17.153Z,14.30
2019-03-29T10:34:57.162Z,14.00
2019-03-29T10:37:35.163Z,14.75
2019-03-29T10:40:13.165Z,19.80
2019-03-29T10:42:57.750Z,17.40
2019-03-29T10:45:38.051Z,15.55
2019-03-29T10:48:12.664Z,15.25
2019-03-29T10:50:55.186Z,16.52
2019-03-29T10:53:29.026Z,16.25
2019-03-29T10:56:08.622Z,18.20
2019-03-29T10:58:46.693Z,18.77
2019-03-29T11:01:24.735Z,19.45
2019-03-29T11:03:56.078Z,19.05
2019-03-29T11:06:32.552Z,18.60
2019-03-29T11:09:09.736Z,20.65
2019-03-29T11:11:47.215Z,18.77
2019-03-29T11:14:23.696Z,17.50
2019-03-29T11:17:04.669Z,19.42
2019-03-29T11:19:46.231Z,23.25
2019-03-29T11:22:25.692Z,21.40
2019-03-29T11:25:03.224Z,22.05
2019-03-29T11:27:35.658Z,21.85
2019-03-29T11:30:14.225Z,24.47
2019-03-29T11:32:55.660Z,23.50
2019-03-29T11:35:34.690Z,26.55
2019-03-29T11:38:11.669Z,25.77
2019-03-29T11:40:50.225Z,26.48
2019-03-29T11:43:28.700Z,28.38
2019-03-29T11:46:09.239Z,26.60
2019-03-29T11:48:49.246Z,27.90
2019-03-29T11:51:27.730Z,28.25
2019-03-29T11:54:09.256Z,25.85
2019-03-29T11:56:47.889Z,27.87
2019-03-29T11:59:21.538Z,27.60
2019-03-29T12:01:58.259Z,27.90
2019-03-29T12:04:35.700Z,26.45
2019-03-29T12:07:17.269Z,24.43
2019-03-29T12:09:56.727Z,23.55
2019-03-29T12:12:32.169Z,26.07
2019-03-29T12:15:09.766Z,23.15
2019-03-29T12:17:47.300Z,24.15
2019-03-29T12:20:26.298Z,23.60
2019-03-29T12:25:46.300Z,24.65
2019-03-29T12:28:24.598Z,29.10
2019-03-29T12:30:58.095Z,23.65
2019-03-29T12:33:34.768Z,25.52
2019-03-29T12:38:51.318Z,21.90
2019-03-29T12:41:31.751Z,22.25
2019-03-29T12:44:10.317Z,22.05
2019-03-29T12:46:47.757Z,19.98
2019-03-29T12:49:25.762Z,19.67
2019-03-29T12:52:02.131Z,22.93
2019-03-29T12:54:33.786Z,19.82
2019-03-29T12:57:08.133Z,19.17
2019-03-29T12:59:46.322Z,18.82
2019-03-29T13:02:22.789Z,16.85
2019-03-29T13:05:01.089Z,18.90
2019-03-29T13:07:38.318Z,17.12
2019-03-29T13:10:16.320Z,16.77
2019-03-29T13:12:54.792Z,17.32
2019-03-29T13:15:35.768Z,17.57
2019-03-29T13:18:18.318Z,15.93
2019-03-29T13:20:57.815Z,16.85
2019-03-29T13:23:39.338Z,16.40
2019-03-29T13:26:16.792Z,15.10
2019-03-29T13:28:58.350Z,14.28
2019-03-29T13:31:36.794Z,14.00
2019-03-29T13:34:15.348Z,13.75
2019-03-29T13:36:54.351Z,13.48
2019-03-29T13:39:28.145Z,13.95
2019-03-29T13:42:02.563Z,13.72
2019-03-29T13:44:39.369Z,14.25
2019-03-29T13:47:34.370Z,12.73
2019-03-29T13:50:11.372Z,12.35
2019-03-29T13:52:48.916Z,12.20
2019-03-29T13:55:21.802Z,11.30
2019-03-29T13:57:53.375Z,10.95
2019-03-29T14:00:30.846Z,11.12
2019-03-29T14:03:10.370Z,11.43
2019-03-29T14:05:51.375Z,10.43
2019-03-29T14:08:30.376Z,11.30
2019-03-29T14:11:09.824Z,10.72
2019-03-29T14:13:42.379Z,10.13
2019-03-29T14:16:14.261Z,10.03
2019-03-29T14:18:51.390Z,8.98
2019-03-29T14:21:32.405Z,9.68
2019-03-29T14:24:17.403Z,10.28
2019-03-29T14:26:56.401Z,10.35
2019-03-29T14:29:30.737Z,9.08
2019-03-29T14:32:09.762Z,10.10
2019-03-29T14:34:44.899Z,8.80
2019-03-29T14:37:22.431Z,8.80
2019-03-29T14:40:01.430Z,9.53
2019-03-29T14:42:37.432Z,9.25
2019-03-29T14:45:13.442Z,9.05
2019-03-29T14:47:54.467Z,8.00
2019-03-29T14:50:31.461Z,8.60
2019-03-29T14:53:13.473Z,10.82
2019-03-29T14:55:51.480Z,10.40
2019-03-29T14:58:36.470Z,7.72
2019-03-29T15:01:11.289Z,8.65
2019-03-29T15:03:46.934Z,7.70
2019-03-29T15:06:21.251Z,8.63
2019-03-29T15:08:59.476Z,9.98
2019-03-29T15:11:36.951Z,12.43
2019-03-29T15:14:15.061Z,13.38
2019-03-29T15:16:51.936Z,16.50
2019-03-29T15:19:33.491Z,14.63
2019-03-29T15:22:11.938Z,17.17
2019-03-29T15:24:51.493Z,15.53
2019-03-29T15:27:30.490Z,13.25
2019-03-29T15:30:05.950Z,13.83
2019-03-29T15:32:44.468Z,13.08
2019-03-29T15:35:21.490Z,13.85
2019-03-29T15:38:01.807Z,11.25
2019-03-29T15:40:39.494Z,11.93
2019-03-29T15:43:18.501Z,12.90
2019-03-29T15:45:56.943Z,9.50
2019-03-29T15:48:35.500Z,11.95
2019-03-29T15:51:16.510Z,13.25
2019-03-29T15:53:49.013Z,15.83
2019-03-29T15:56:25.530Z,11.88
2019-03-29T15:59:04.549Z,15.20
2019-03-29T16:01:43.023Z,34.08
2019-03-29T16:04:23.571Z,18.35
2019-03-29T16:07:03.569Z,18.37
2019-03-29T16:09:41.027Z,20.77
2019-03-29T16:12:17.569Z,22.15
2019-03-29T16:14:53.042Z,18.32
2019-03-29T16:17:34.016Z,16.90
2019-03-29T16:20:15.578Z,17.20
2019-03-29T16:22:53.581Z,15.48
2019-03-29T16:25:31.304Z,15.98
2019-03-29T16:28:12.598Z,16.00
2019-03-29T16:30:53.588Z,16.20
2019-03-29T16:33:31.053Z,14.55
2019-03-29T16:36:08.360Z,20.82
2019-03-29T16:38:43.475Z,24.65
2019-03-29T16:41:22.589Z,24.25
2019-03-29T16:44:01.019Z,24.02
2019-03-29T16:46:40.589Z,32.83
2019-03-29T16:49:15.491Z,37.95
2019-03-29T16:51:53.610Z,39.30
2019-03-29T16:54:28.837Z,38.00
2019-03-29T16:57:06.618Z,38.05
2019-03-29T16:59:40.617Z,34.33
2019-03-29T17:02:16.090Z,33.95
2019-03-29T17:04:57.620Z,31.20
2019-03-29T17:07:36.603Z,29.65
2019-03-29T17:10:13.648Z,35.80
2019-03-29T17:12:51.924Z,43.98
2019-03-29T17:15:23.960Z,35.52
2019-03-29T17:18:00.428Z,34.55
2019-03-29T17:20:36.596Z,33.92
2019-03-29T17:27:05.643Z,33.23
2019-03-29T17:29:50.113Z,29.67
2019-03-29T17:32:35.350Z,28.87
2019-03-29T17:35:12.908Z,28.92
2019-03-29T17:37:42.839Z,27.93
2019-03-29T17:40:12.471Z,26.35
2019-03-29T17:42:44.314Z,26.77
2019-03-29T17:45:13.812Z,24.30
2019-03-29T17:47:43.382Z,26.80
2019-03-29T17:50:12.944Z,24.30
2019-03-29T17:52:44.044Z,24.45
2019-03-29T17:55:13.619Z,25.10
2019-03-29T17:57:43.166Z,35.13
2019-03-29T18:00:14.326Z,32.78
2019-03-29T18:02:43.864Z,25.77
2019-03-29T18:05:13.451Z,26.80
2019-03-29T18:07:43.011Z,28.57
2019-03-29T18:10:12.589Z,31.25
2019-03-29T18:12:42.167Z,33.75
2019-03-29T18:15:11.706Z,34.33
2019-03-29T18:17:41.262Z,33.33
2019-03-29T18:20:11.139Z,34.30
2019-03-29T18:22:40.694Z,33.45
2019-03-29T18:25:10.635Z,33.20
2019-03-29T18:27:40.478Z,36.00
2019-03-29T18:30:13.793Z,34.73
2019-03-29T18:32:43.344Z,34.20
2019-03-29T18:35:12.902Z,32.78
2019-03-29T18:37:42.459Z,36.48
2019-03-29T18:40:18.265Z,33.30
2019-03-29T18:42:47.863Z,34.33
2019-03-29T18:45:17.425Z,32.10
2019-03-29T18:47:47.107Z,31.50
2019-03-29T18:50:16.666Z,34.33
2019-03-29T18:52:46.200Z,66.53
2019-03-29T18:55:16.233Z,62.98
2019-03-29T18:57:45.771Z,52.27
2019-03-29T19:00:17.095Z,49.65
2019-03-29T19:02:46.644Z,47.60
2019-03-29T19:05:26.546Z,47.40
2019-03-29T19:07:56.097Z,47.05
2019-03-29T19:10:25.797Z,42.27
2019-03-29T19:12:55.364Z,44.10
2019-03-29T19:15:25.211Z,43.30
2019-03-29T19:17:54.986Z,42.78
2019-03-29T19:20:27.706Z,43.50
2019-03-29T19:22:55.708Z,43.75
2019-03-29T19:25:25.284Z,45.43
2019-03-29T19:27:54.832Z,45.67
2019-03-29T19:30:24.725Z,50.65
2019-03-29T19:32:55.263Z,46.42
2019-03-29T19:35:24.904Z,44.98
2019-03-29T19:37:54.452Z,44.13
2019-03-29T19:40:24.004Z,48.13
2019-03-29T19:42:53.570Z,52.62
2019-03-29T19:45:23.132Z,49.48
2019-03-29T19:47:53.095Z,53.25
2019-03-29T19:50:22.639Z,60.45
2019-03-29T19:52:52.263Z,63.17
2019-03-29T19:55:21.847Z,57.90
2019-03-29T19:57:51.373Z,49.40
2019-03-29T20:00:24.123Z,48.35
2019-03-29T20:02:53.644Z,50.20
2019-03-29T20:05:27.587Z,49.70
2019-03-29T20:07:57.140Z,46.50
2019-03-29T20:10:27.059Z,42.27
2019-03-29T20:12:56.731Z,45.38
2019-03-29T20:15:26.275Z,44.85
2019-03-29T20:17:55.864Z,44.88
2019-03-29T20:20:25.936Z,44.48
2019-03-29T20:22:57.898Z,44.60
2019-03-29T20:25:27.444Z,43.55
2019-03-29T20:27:58.628Z,42.20
2019-03-29T20:30:28.186Z,42.25
2019-03-29T20:32:57.739Z,41.05
2019-03-29T20:35:27.731Z,39.45
2019-03-29T20:37:57.271Z,39.58
2019-03-29T20:40:26.814Z,39.98
2019-03-29T20:42:56.522Z,39.75
2019-03-29T20:45:26.064Z,40.48
2019-03-29T20:47:56.039Z,38.73
2019-03-29T20:50:25.607Z,35.23
2019-03-29T20:52:55.455Z,35.25
2019-03-29T20:55:25.395Z,32.50
2019-03-29T20:57:55.292Z,31.42
2019-03-29T21:00:24.888Z,29.87
2019-03-29T21:02:54.437Z,29.75
2019-03-29T21:05:24.011Z,29.63
2019-03-29T21:07:55.125Z,30.00
2019-03-29T21:10:24.749Z,28.57
2019-03-29T21:12:54.354Z,28.57
2019-03-29T21:15:23.893Z,27.20
2019-03-29T21:17:57.506Z,28.32
2019-03-29T21:20:24.638Z,26.35
2019-03-29T21:22:54.235Z,28.05
2019-03-29T21:25:23.799Z,26.48
2019-03-29T21:27:53.348Z,26.37
2019-03-29T21:30:22.927Z,27.48
2019-03-29T21:32:52.510Z,26.05
2019-03-29T21:35:22.067Z,27.65
2019-03-29T21:37:51.726Z,27.17
2019-03-29T21:40:21.283Z,27.35
2019-03-29T21:42:50.886Z,28.25
2019-03-29T21:45:28.695Z,27.62
2019-03-29T21:48:02.317Z,24.95
2019-03-29T21:50:23.168Z,25.08
2019-03-29T21:52:53.203Z,25.48
2019-03-29T21:55:22.747Z,23.90
2019-03-29T21:57:52.398Z,26.15
2019-03-29T22:00:21.964Z,24.77
2019-03-29T22:02:51.713Z,23.75
2019-03-29T22:05:21.291Z,24.90
2019-03-29T22:07:50.865Z,24.02
2019-03-29T22:10:20.427Z,24.02
2019-03-29T22:12:49.992Z,21.95
2019-03-29T22:15:19.747Z,23.30
2019-03-29T22:17:49.433Z,24.50
2019-03-29T22:20:20.084Z,25.50
2019-03-29T22:22:49.667Z,22.73
2019-03-29T22:25:19.252Z,25.20
2019-03-29T22:27:48.795Z,23.12
2019-03-29T22:30:19.755Z,24.23
2019-03-29T22:32:49.407Z,23.30
2019-03-29T22:35:19.877Z,23.75
2019-03-29T22:37:49.415Z,24.35
2019-03-29T22:40:18.979Z,25.30
2019-03-29T22:42:48.530Z,23.10
2019-03-29T22:45:18.082Z,23.52
2019-03-29T22:47:47.666Z,23.10
2019-03-29T22:50:17.227Z,26.05
2019-03-29T22:52:47.194Z,26.42
2019-03-29T22:55:17.052Z,26.25
2019-03-29T22:57:46.636Z,26.68
2019-03-29T23:00:26.620Z,26.60
2019-03-29T23:02:57.719Z,25.00
2019-03-29T23:05:27.290Z,26.62
2019-03-29T23:07:56.849Z,25.48
2019-03-29T23:10:26.402Z,26.05
2019-03-29T23:12:55.971Z,25.72
2019-03-29T23:15:25.519Z,26.07
2019-03-29T23:17:55.102Z,24.43
2019-03-29T23:20:24.643Z,26.52
2019-03-29T23:22:54.213Z,27.40
2019-03-29T23:25:23.956Z,26.97
2019-03-29T23:27:53.999Z,28.30
2019-03-29T23:30:23.653Z,27.07
2019-03-29T23:32:53.187Z,28.17
2019-03-29T23:35:22.767Z,29.67
2019-03-29T23:37:52.324Z,26.35
2019-03-29T23:40:21.882Z,29.07
2019-03-29T23:42:51.478Z,27.98
2019-03-29T23:45:22.051Z,26.82
2019-03-29T23:47:51.608Z,27.58
2019-03-29T23:50:21.163Z,27.80
2019-03-29T23:52:51.334Z,30.05
2019-03-29T23:55:20.915Z,27.10
2019-03-29T23:57:50.470Z,28.57
